createdAt,value
2023-01-23T00:00:17.059Z,8.63
2023-01-23T00:02:45.020Z,7.13
2023-01-23T00:05:13.486Z,8.60
2023-01-23T00:07:41.742Z,6.97
2023-01-23T00:10:10.204Z,4.80
2023-01-23T00:12:38.118Z,9.47
2023-01-23T00:15:06.819Z,11.70
2023-01-23T00:17:35.999Z,10.67
2023-01-23T00:20:04.649Z,11.03
2023-01-23T00:22:32.495Z,9.90
2023-01-23T00:25:00.247Z,9.97
2023-01-23T00:27:30.405Z,11.27
2023-01-23T00:29:58.316Z,12.77
2023-01-23T00:32:26.623Z,8.83
2023-01-23T00:34:58.321Z,5.43
2023-01-23T00:37:26.076Z,4.67
2023-01-23T00:39:53.888Z,5.77
2023-01-23T00:42:21.637Z,5.77
2023-01-23T00:44:50.797Z,7.20
2023-01-23T00:47:18.653Z,9.53
2023-01-23T00:49:46.529Z,8.33
2023-01-23T00:52:15.897Z,8.40
2023-01-23T00:54:43.666Z,10.97
2023-01-23T00:57:11.573Z,15.03
2023-01-23T00:59:39.232Z,18.27
2023-01-23T01:02:07.484Z,9.90
2023-01-23T01:04:35.561Z,6.20
2023-01-23T01:07:03.378Z,7.67
2023-01-23T01:09:32.473Z,7.30
2023-01-23T01:12:00.406Z,9.80
2023-01-23T01:14:28.154Z,9.90
2023-01-23T01:16:55.932Z,10.07
2023-01-23T01:19:23.666Z,11.37
2023-01-23T01:21:51.699Z,10.37
2023-01-23T01:24:19.377Z,10.63
2023-01-23T01:26:48.837Z,11.87
2023-01-23T01:29:16.735Z,9.47
2023-01-23T01:31:47.061Z,11.03
2023-01-23T01:34:14.868Z,8.67
2023-01-23T01:36:42.616Z,12.60
2023-01-23T01:39:10.299Z,13.87
2023-01-23T01:41:38.639Z,20.50
2023-01-23T01:44:08.020Z,5.63
2023-01-23T01:46:36.046Z,7.10
2023-01-23T01:49:08.194Z,9.20
2023-01-23T01:51:38.134Z,6.33
2023-01-23T01:54:08.960Z,4.80
2023-01-23T01:56:40.081Z,3.90
2023-01-23T01:59:09.873Z,5.90
2023-01-23T02:01:38.913Z,4.57
2023-01-23T02:04:07.733Z,4.67
2023-01-23T02:06:35.488Z,5.27
2023-01-23T02:09:05.959Z,4.53
2023-01-23T02:11:34.257Z,5.33
2023-01-23T02:14:02.038Z,5.80
2023-01-23T02:16:33.289Z,17.07
2023-01-23T02:19:03.303Z,10.93
2023-01-23T02:21:31.201Z,8.37
2023-01-23T02:24:11.969Z,12.70
2023-01-23T02:26:41.994Z,16.90
2023-01-23T02:29:09.823Z,13.73
2023-01-23T02:31:38.018Z,16.57
2023-01-23T02:34:05.920Z,12.43
2023-01-23T02:36:35.647Z,15.03
2023-01-23T02:39:08.535Z,5.87
2023-01-23T02:41:39.073Z,5.03
2023-01-23T02:44:11.590Z,4.37
2023-01-23T02:46:40.229Z,4.77
2023-01-23T02:49:08.024Z,5.53
2023-01-23T02:51:35.771Z,4.73
2023-01-23T02:54:03.929Z,4.10
2023-01-23T02:56:32.934Z,3.77
2023-01-23T02:59:18.304Z,4.77
2023-01-23T03:01:47.439Z,3.00
2023-01-23T03:04:15.182Z,4.03
2023-01-23T03:06:44.800Z,2.73
2023-01-23T03:09:13.643Z,3.20
2023-01-23T03:11:42.843Z,2.90
2023-01-23T03:14:11.475Z,4.67
2023-01-23T03:16:39.480Z,5.60
2023-01-23T03:19:11.683Z,4.60
2023-01-23T03:21:41.029Z,8.40
2023-01-23T03:24:09.461Z,8.13
2023-01-23T03:26:39.788Z,6.27
2023-01-23T03:29:25.336Z,5.20
2023-01-23T03:31:53.258Z,5.87
2023-01-23T03:34:23.181Z,6.20
2023-01-23T03:36:51.262Z,8.93
2023-01-23T03:39:36.458Z,9.07
2023-01-23T03:42:04.591Z,8.37
2023-01-23T03:44:33.133Z,10.80
2023-01-23T03:47:01.410Z,11.37
2023-01-23T03:49:33.727Z,8.30
2023-01-23T03:52:01.698Z,5.30
2023-01-23T03:54:31.069Z,8.53
2023-01-23T03:56:58.934Z,7.07
2023-01-23T03:59:26.812Z,4.13
2023-01-23T04:01:54.953Z,5.37
2023-01-23T04:04:22.738Z,9.17
2023-01-23T04:06:52.091Z,8.23
2023-01-23T04:09:19.767Z,7.73
2023-01-23T04:11:47.579Z,10.70
2023-01-23T04:14:18.506Z,7.40
2023-01-23T04:16:46.445Z,7.60
2023-01-23T04:19:14.222Z,8.77
2023-01-23T04:21:41.951Z,7.17
2023-01-23T04:24:11.125Z,9.27
2023-01-23T04:26:39.167Z,7.63
2023-01-23T04:29:07.044Z,7.73
2023-01-23T04:31:34.973Z,7.23
2023-01-23T04:34:03.567Z,5.07
2023-01-23T04:36:31.435Z,6.93
2023-01-23T04:38:59.716Z,8.53
2023-01-23T04:41:31.405Z,5.73
2023-01-23T04:44:19.970Z,6.93
2023-01-23T04:46:50.095Z,5.40
2023-01-23T04:49:18.776Z,5.67
2023-01-23T04:51:48.426Z,5.23
2023-01-23T04:54:16.519Z,5.93
2023-01-23T04:56:46.508Z,4.83
2023-01-23T04:59:16.127Z,5.77
2023-01-23T05:01:43.994Z,7.43
2023-01-23T05:04:11.909Z,4.77
2023-01-23T05:06:39.875Z,7.30
2023-01-23T05:09:07.742Z,4.37
2023-01-23T05:11:35.543Z,5.37
2023-01-23T05:14:04.718Z,7.17
2023-01-23T05:16:32.576Z,7.80
2023-01-23T05:19:00.382Z,7.27
2023-01-23T05:21:28.209Z,8.33
2023-01-23T05:23:55.992Z,6.03
2023-01-23T05:26:24.114Z,9.77
2023-01-23T05:28:52.145Z,9.77
2023-01-23T05:31:21.433Z,10.47
2023-01-23T05:33:49.591Z,10.23
2023-01-23T05:36:18.769Z,7.83
2023-01-23T05:38:46.503Z,7.73
2023-01-23T05:41:14.524Z,6.57
2023-01-23T05:43:42.517Z,8.37
2023-01-23T05:46:10.615Z,7.57
2023-01-23T05:48:40.671Z,8.87
2023-01-23T05:51:08.580Z,4.63
2023-01-23T05:53:36.409Z,2.80
2023-01-23T05:56:06.844Z,3.83
2023-01-23T05:58:34.604Z,5.03
2023-01-23T06:01:02.995Z,7.57
2023-01-23T06:03:31.051Z,7.20
2023-01-23T06:06:03.395Z,9.87
2023-01-23T06:08:31.423Z,7.43
2023-01-23T06:11:00.791Z,5.33
2023-01-23T06:13:28.807Z,3.93
2023-01-23T06:16:04.362Z,3.20
2023-01-23T06:18:32.671Z,3.60
2023-01-23T06:21:02.351Z,4.90
2023-01-23T06:23:31.662Z,2.30
2023-01-23T06:26:02.932Z,2.50
2023-01-23T06:28:30.802Z,4.80
2023-01-23T06:31:02.181Z,4.57
2023-01-23T06:33:30.649Z,5.53
2023-01-23T06:35:59.022Z,5.60
2023-01-23T06:38:28.326Z,4.07
2023-01-23T06:40:56.382Z,5.37
2023-01-23T06:43:25.371Z,6.97
2023-01-23T06:45:53.234Z,6.73
2023-01-23T06:48:20.963Z,7.70
2023-01-23T06:50:49.056Z,5.57
2023-01-23T06:53:17.636Z,7.80
2023-01-23T06:55:48.798Z,7.97
2023-01-23T06:58:16.491Z,7.53
2023-01-23T07:00:45.043Z,6.67
2023-01-23T07:03:13.017Z,8.00
2023-01-23T07:05:43.443Z,9.53
2023-01-23T07:08:11.956Z,8.23
2023-01-23T07:10:41.967Z,6.53
2023-01-23T07:13:12.047Z,5.63
2023-01-23T07:15:41.173Z,6.97
2023-01-23T07:18:09.254Z,8.27
2023-01-23T07:20:38.467Z,10.47
2023-01-23T07:23:09.207Z,13.27
2023-01-23T07:25:36.964Z,7.97
2023-01-23T07:28:04.824Z,7.23
2023-01-23T07:30:34.230Z,9.17
2023-01-23T07:33:02.365Z,9.07
2023-01-23T07:35:30.516Z,9.63
2023-01-23T07:37:59.333Z,8.33
2023-01-23T07:40:29.667Z,13.17
2023-01-23T07:42:57.917Z,10.73
2023-01-23T07:45:27.257Z,11.70
2023-01-23T07:47:56.587Z,10.90
2023-01-23T07:50:24.454Z,10.10
2023-01-23T07:52:52.309Z,9.30
2023-01-23T07:55:20.211Z,8.20
2023-01-23T07:57:48.154Z,9.00
2023-01-23T08:00:16.461Z,6.67
2023-01-23T08:02:44.102Z,6.10
2023-01-23T08:05:13.198Z,6.97
2023-01-23T08:07:41.015Z,7.60
2023-01-23T08:10:12.795Z,6.63
2023-01-23T08:12:40.717Z,10.40
2023-01-23T08:15:09.585Z,8.60
2023-01-23T08:17:37.321Z,8.20
2023-01-23T08:20:05.534Z,6.90
2023-01-23T08:22:34.994Z,8.50
2023-01-23T08:25:02.757Z,7.30
2023-01-23T08:27:30.687Z,5.40
2023-01-23T08:29:58.355Z,4.50
2023-01-23T08:32:26.428Z,4.23
2023-01-23T08:34:55.244Z,4.20
2023-01-23T08:37:23.010Z,3.67
2023-01-23T08:39:52.949Z,5.07
2023-01-23T08:42:21.327Z,7.00
2023-01-23T08:44:53.616Z,8.03
2023-01-23T08:47:21.697Z,5.80
2023-01-23T08:49:49.742Z,8.47
2023-01-23T08:52:17.557Z,7.43
2023-01-23T08:54:45.390Z,4.60
2023-01-23T08:57:14.757Z,3.90
2023-01-23T08:59:44.473Z,4.37
2023-01-23T09:02:15.450Z,3.67
2023-01-23T09:04:43.433Z,3.60
2023-01-23T09:07:11.285Z,3.70
2023-01-23T09:09:39.472Z,3.93
2023-01-23T09:12:08.295Z,3.73
2023-01-23T09:14:38.124Z,3.80
2023-01-23T09:17:06.554Z,3.20
2023-01-23T09:19:34.969Z,4.40
2023-01-23T09:22:03.071Z,4.07
2023-01-23T09:24:31.111Z,4.27
2023-01-23T09:26:59.292Z,3.53
2023-01-23T09:29:26.987Z,3.63
2023-01-23T09:31:56.173Z,2.87
2023-01-23T09:34:24.430Z,2.83
2023-01-23T09:36:52.177Z,3.23
2023-01-23T09:39:21.094Z,3.00
2023-01-23T09:41:49.538Z,3.03
2023-01-23T09:44:20.991Z,3.57
2023-01-23T09:46:51.778Z,3.67
2023-01-23T09:49:25.872Z,3.50
2023-01-23T09:51:57.861Z,4.00
2023-01-23T09:54:32.234Z,7.07
2023-01-23T09:57:02.120Z,9.37
2023-01-23T09:59:34.092Z,11.40
2023-01-23T10:02:02.485Z,10.77
2023-01-23T10:04:32.710Z,11.03
2023-01-23T10:07:08.870Z,14.83
2023-01-23T10:09:43.255Z,12.77
2023-01-23T10:12:14.866Z,10.27
2023-01-23T10:14:53.869Z,11.90
2023-01-23T10:17:26.286Z,18.63
2023-01-23T10:20:07.736Z,12.07
2023-01-23T10:22:38.402Z,11.27
2023-01-23T10:25:12.594Z,9.93
2023-01-23T10:27:42.298Z,8.87
2023-01-23T10:30:18.528Z,7.77
2023-01-23T10:32:54.895Z,8.17
2023-01-23T10:35:28.283Z,7.57
2023-01-23T10:38:01.013Z,7.53
2023-01-23T10:40:46.345Z,5.47
2023-01-23T10:43:15.089Z,7.90
2023-01-23T10:45:43.643Z,8.43
2023-01-23T10:48:36.385Z,8.93
2023-01-23T10:51:05.517Z,7.90
2023-01-23T10:53:33.416Z,9.57
2023-01-23T10:56:01.736Z,8.47
2023-01-23T10:58:33.411Z,7.90
2023-01-23T11:01:02.763Z,9.83
2023-01-23T11:03:32.733Z,9.40
2023-01-23T11:06:06.350Z,6.20
2023-01-23T11:08:36.425Z,5.33
2023-01-23T11:11:22.891Z,5.23
2023-01-23T11:13:52.864Z,5.13
2023-01-23T11:16:22.853Z,4.50
2023-01-23T11:18:55.546Z,5.27
2023-01-23T11:21:27.942Z,4.33
2023-01-23T11:24:09.095Z,6.13
2023-01-23T11:26:38.231Z,6.43
2023-01-23T11:29:20.348Z,5.27
2023-01-23T11:31:48.707Z,5.00
2023-01-23T11:34:18.471Z,4.20
2023-01-23T11:36:53.369Z,4.30
2023-01-23T11:39:26.759Z,4.97
2023-01-23T11:41:55.299Z,3.83
2023-01-23T11:44:25.536Z,4.57
2023-01-23T11:47:02.109Z,4.50
2023-01-23T11:49:39.039Z,5.10
2023-01-23T11:52:14.427Z,4.87
2023-01-23T11:54:50.580Z,4.80
2023-01-23T11:57:24.506Z,5.20
2023-01-23T11:59:58.469Z,4.83
2023-01-23T12:02:46.782Z,4.03
2023-01-23T12:05:25.765Z,4.53
2023-01-23T12:08:00.628Z,4.97
2023-01-23T12:10:31.803Z,4.70
2023-01-23T12:13:07.922Z,4.90
2023-01-23T12:15:40.353Z,5.87
2023-01-23T12:18:13.535Z,5.53
2023-01-23T12:20:48.331Z,5.40
2023-01-23T12:23:22.039Z,5.57
2023-01-23T12:25:53.350Z,5.60
2023-01-23T12:28:29.605Z,4.77
2023-01-23T12:31:15.157Z,6.00
2023-01-23T12:33:51.375Z,5.20
2023-01-23T12:36:27.954Z,6.10
2023-01-23T12:39:04.037Z,6.00
2023-01-23T12:41:36.909Z,5.13
2023-01-23T12:44:10.638Z,6.53
2023-01-23T12:46:40.651Z,5.60
2023-01-23T12:49:15.483Z,4.30
2023-01-23T12:51:44.976Z,5.20
2023-01-23T12:54:19.952Z,4.53
2023-01-23T12:56:47.754Z,5.13
2023-01-23T12:59:19.622Z,5.67
2023-01-23T13:02:00.060Z,6.47
2023-01-23T13:04:34.749Z,7.87
2023-01-23T13:07:10.782Z,6.07
2023-01-23T13:09:51.097Z,6.13
2023-01-23T13:12:26.529Z,6.17
2023-01-23T13:15:13.007Z,6.00
2023-01-23T13:17:43.947Z,6.13
2023-01-23T13:20:42.758Z,6.23
2023-01-23T13:23:24.792Z,5.10
2023-01-23T13:26:13.362Z,5.83
2023-01-23T13:28:45.993Z,5.33
2023-01-23T13:31:25.707Z,5.63
2023-01-23T13:33:58.660Z,6.47
2023-01-23T13:36:32.898Z,5.53
2023-01-23T13:39:05.738Z,7.10
2023-01-23T13:41:35.280Z,5.70
2023-01-23T13:44:05.610Z,7.20
2023-01-23T13:46:38.935Z,7.77
2023-01-23T14:21:47.562Z,8.90
2023-01-23T14:27:10.397Z,10.80
2023-01-23T14:29:38.188Z,8.63
2023-01-23T14:32:22.005Z,11.00
2023-01-23T14:34:49.929Z,10.17
2023-01-23T14:37:17.982Z,7.80
2023-01-23T14:39:53.023Z,8.20
2023-01-23T14:42:25.731Z,6.70
2023-01-23T14:44:56.308Z,7.33
2023-01-23T14:47:31.082Z,6.97
2023-01-23T14:50:02.950Z,5.53
2023-01-23T14:52:31.478Z,6.93
2023-01-23T14:55:07.173Z,7.07
2023-01-23T14:57:36.762Z,5.23
2023-01-23T15:00:05.229Z,6.67
2023-01-23T15:02:35.326Z,5.73
2023-01-23T15:05:19.750Z,8.90
2023-01-23T15:07:48.823Z,6.93
2023-01-23T15:10:17.733Z,4.27
2023-01-23T15:12:50.095Z,5.27
2023-01-23T15:15:20.546Z,5.77
2023-01-23T15:17:50.205Z,6.30
2023-01-23T15:20:32.215Z,6.23
2023-01-23T15:23:15.038Z,6.80
2023-01-23T15:25:42.924Z,5.80
2023-01-23T15:28:30.867Z,6.30
2023-01-23T15:30:58.921Z,7.03
2023-01-23T15:33:29.169Z,8.00
2023-01-23T15:36:03.833Z,6.67
2023-01-23T15:38:31.974Z,5.97
2023-01-23T15:41:00.131Z,8.50
2023-01-23T15:43:29.279Z,12.20
2023-01-23T15:45:57.644Z,11.43
2023-01-23T15:48:25.659Z,8.03
2023-01-23T15:50:55.344Z,5.17
2023-01-23T15:53:23.098Z,3.30
2023-01-23T15:55:53.177Z,3.67
2023-01-23T15:58:21.057Z,3.77
2023-01-23T16:00:49.249Z,3.67
2023-01-23T16:03:17.287Z,3.37
2023-01-23T16:05:45.066Z,3.43
2023-01-23T16:08:19.297Z,2.77
2023-01-23T16:10:47.626Z,2.77
2023-01-23T16:13:15.460Z,2.93
2023-01-23T16:15:43.925Z,3.17
2023-01-23T16:18:11.709Z,3.43
2023-01-23T16:20:42.501Z,3.07
2023-01-23T16:23:15.457Z,3.23
2023-01-23T16:25:46.269Z,3.13
2023-01-23T16:28:14.866Z,2.60
2023-01-23T16:30:42.571Z,3.30
2023-01-23T16:33:10.386Z,3.40
2023-01-23T16:35:38.281Z,2.83
2023-01-23T16:38:06.425Z,2.77
2023-01-23T16:40:35.146Z,3.00
2023-01-23T16:43:04.609Z,2.43
2023-01-23T16:45:32.911Z,2.70
2023-01-23T16:48:00.809Z,2.10
2023-01-23T16:50:33.623Z,2.57
2023-01-23T16:53:02.753Z,2.10
2023-01-23T16:55:33.212Z,2.30
2023-01-23T16:58:01.680Z,2.63
2023-01-23T17:00:34.689Z,2.70
2023-01-23T17:03:04.487Z,2.47
2023-01-23T17:05:32.248Z,2.43
2023-01-23T17:08:00.151Z,2.37
2023-01-23T17:10:41.257Z,2.73
2023-01-23T17:13:13.983Z,2.07
2023-01-23T17:15:43.622Z,2.50
2023-01-23T17:18:18.021Z,2.10
2023-01-23T17:20:45.793Z,2.60
2023-01-23T17:23:15.816Z,2.67
2023-01-23T17:25:59.908Z,2.10
2023-01-23T17:28:29.072Z,3.23
2023-01-23T17:31:00.621Z,2.60
2023-01-23T17:33:31.548Z,3.60
2023-01-23T17:35:59.978Z,5.47
2023-01-23T17:38:29.167Z,5.17
2023-01-23T17:40:56.909Z,4.20
2023-01-23T17:43:25.325Z,4.30
2023-01-23T17:45:53.672Z,10.77
2023-01-23T17:48:26.471Z,10.90
2023-01-23T17:50:54.413Z,8.27
2023-01-23T17:53:22.364Z,5.50
2023-01-23T17:55:51.638Z,4.90
2023-01-23T17:58:21.591Z,5.57
2023-01-23T18:00:51.024Z,4.30
2023-01-23T18:03:21.868Z,4.13
2023-01-23T18:05:51.809Z,3.77
2023-01-23T18:08:21.771Z,3.93
2023-01-23T18:10:50.406Z,4.53
2023-01-23T18:13:20.472Z,4.80
2023-01-23T18:15:57.751Z,5.23
2023-01-23T18:18:30.524Z,7.60
2023-01-23T18:21:01.154Z,4.50
2023-01-23T18:23:32.426Z,4.20
2023-01-23T18:26:08.935Z,4.97
2023-01-23T18:28:40.564Z,3.20
2023-01-23T18:31:11.843Z,3.80
2023-01-23T18:33:58.368Z,3.90
2023-01-23T18:36:35.202Z,3.63
2023-01-23T18:39:16.731Z,4.40
2023-01-23T18:41:49.694Z,3.80
2023-01-23T18:44:21.728Z,3.87
2023-01-23T18:46:50.219Z,5.00
2023-01-23T18:49:32.042Z,4.33
2023-01-23T18:52:03.639Z,3.60
2023-01-23T18:54:34.569Z,3.40
2023-01-23T18:57:10.614Z,2.97
2023-01-23T18:59:42.717Z,3.20
2023-01-23T19:02:17.787Z,3.27
2023-01-23T19:04:47.872Z,3.00
2023-01-23T19:07:19.374Z,3.43
2023-01-23T19:09:48.460Z,3.50
2023-01-23T19:12:25.683Z,2.57
2023-01-23T19:15:02.925Z,3.30
2023-01-23T19:17:37.458Z,2.47
2023-01-23T19:20:07.597Z,3.00
2023-01-23T19:22:49.792Z,2.77
2023-01-23T19:25:18.785Z,3.30
2023-01-23T19:27:52.905Z,3.07
2023-01-23T19:30:21.901Z,3.60
2023-01-23T19:32:50.503Z,2.97
2023-01-23T19:35:19.343Z,2.53
2023-01-23T19:37:48.520Z,3.03
2023-01-23T19:40:17.281Z,3.47
2023-01-23T19:42:56.205Z,3.63
2023-01-23T19:45:29.434Z,2.83
2023-01-23T19:47:59.199Z,2.53
2023-01-23T19:50:27.351Z,2.37
2023-01-23T19:52:57.339Z,2.90
2023-01-23T19:55:25.732Z,3.20
2023-01-23T19:57:54.208Z,2.63
2023-01-23T20:00:22.553Z,2.27
2023-01-23T20:02:50.856Z,2.03
2023-01-23T20:05:19.094Z,2.40
2023-01-23T20:07:47.244Z,2.63
2023-01-23T20:10:16.780Z,2.80
2023-01-23T20:12:45.735Z,2.73
2023-01-23T20:15:14.561Z,3.33
2023-01-23T20:17:43.095Z,2.50
2023-01-23T20:20:12.008Z,3.10
2023-01-23T20:22:40.202Z,2.73
2023-01-23T20:25:08.692Z,3.07
2023-01-23T20:27:38.287Z,2.77
2023-01-23T20:30:06.855Z,2.70
2023-01-23T20:32:35.010Z,3.00
2023-01-23T20:35:02.776Z,3.00
2023-01-23T20:37:35.059Z,2.57
2023-01-23T20:40:02.826Z,2.30
2023-01-23T20:42:32.071Z,2.73
2023-01-23T20:45:01.710Z,3.10
2023-01-23T20:47:30.069Z,2.30
2023-01-23T20:49:58.026Z,2.40
2023-01-23T20:52:43.305Z,2.30
2023-01-23T20:55:11.427Z,2.67
2023-01-23T20:57:56.751Z,2.50
2023-01-23T21:00:28.290Z,2.37
2023-01-23T21:02:56.120Z,2.77
2023-01-23T21:05:24.085Z,2.77
2023-01-23T21:07:51.935Z,2.77
2023-01-23T21:10:19.912Z,2.33
2023-01-23T21:12:47.623Z,2.60
2023-01-23T21:15:15.679Z,2.70
2023-01-23T21:17:45.191Z,2.60
2023-01-23T21:20:13.182Z,2.70
2023-01-23T21:22:40.866Z,2.80
2023-01-23T21:25:08.864Z,3.10
2023-01-23T21:27:36.584Z,2.60
2023-01-23T21:30:04.449Z,2.50
2023-01-23T21:32:33.708Z,2.80
2023-01-23T21:35:02.922Z,2.67
2023-01-23T21:37:30.865Z,3.17
2023-01-23T21:39:58.915Z,3.13
2023-01-23T21:42:26.733Z,2.73
2023-01-23T21:44:57.638Z,2.33
2023-01-23T21:47:25.836Z,2.93
2023-01-23T21:49:54.056Z,2.63
2023-01-23T21:52:23.491Z,3.10
2023-01-23T21:54:51.241Z,3.57
2023-01-23T21:57:19.015Z,2.83
2023-01-23T22:00:08.263Z,3.57
2023-01-23T22:02:35.090Z,2.83
2023-01-23T22:05:02.937Z,3.00
2023-01-23T22:07:32.019Z,2.93
2023-01-23T22:10:00.138Z,2.40
2023-01-23T22:12:28.826Z,2.63
2023-01-23T22:14:56.622Z,3.80
2023-01-23T22:17:24.458Z,2.40
2023-01-23T22:19:52.229Z,2.17
2023-01-23T22:22:20.861Z,2.90
2023-01-23T22:24:52.109Z,2.73
2023-01-23T22:27:20.156Z,2.07
2023-01-23T22:29:49.083Z,1.97
2023-01-23T22:32:16.959Z,1.87
2023-01-23T22:34:44.663Z,2.10
2023-01-23T22:37:12.360Z,1.70
2023-01-23T22:39:40.338Z,2.07
2023-01-23T22:42:09.969Z,2.10
2023-01-23T22:44:38.030Z,4.80
2023-01-23T22:47:06.051Z,6.53
2023-01-23T22:49:33.795Z,3.57
2023-01-23T22:52:01.504Z,3.50
2023-01-23T22:54:29.330Z,2.73
2023-01-23T22:56:57.059Z,2.97
2023-01-23T22:59:26.275Z,3.60
2023-01-23T23:01:54.344Z,5.50
2023-01-23T23:04:22.454Z,7.90
2023-01-23T23:06:50.160Z,8.47
2023-01-23T23:09:18.345Z,7.33
2023-01-23T23:11:49.130Z,6.07
2023-01-23T23:14:17.272Z,4.03
2023-01-23T23:16:46.443Z,3.27
2023-01-23T23:19:14.407Z,3.73
2023-01-23T23:21:42.130Z,3.03
2023-01-23T23:24:14.027Z,2.97
2023-01-23T23:26:41.898Z,3.00
2023-01-23T23:29:09.808Z,2.87
2023-01-23T23:31:37.934Z,3.43
2023-01-23T23:34:07.633Z,3.17
2023-01-23T23:36:35.797Z,2.73
2023-01-23T23:39:03.560Z,3.47
2023-01-23T23:41:31.294Z,3.60
2023-01-23T23:44:00.154Z,3.37
2023-01-23T23:46:27.989Z,4.10
2023-01-23T23:48:55.952Z,3.17
2023-01-23T23:51:26.645Z,3.60
2023-01-23T23:53:55.827Z,4.00
2023-01-23T23:56:24.722Z,3.77
2023-01-23T23:58:52.727Z,3.13
